Terminal Aerodrome Forecast
Issued by NWS Sioux Falls, SD

Home | Current Version | Previous Version | Text Only | Print | Product List | Glossary Off
Versions: 1 2 3 4 5 6 7 8 9 10 11 12 13

211
FTUS43 KFSD 052320
TAFHON
TAF
KHON 052320Z 0600/0624 30018G27KT P6SM OVC020
     FM060200 30021G31KT P6SM BKN030
     FM061200 30025G35KT P6SM BKN025
     FM062200 30021G31KT P6SM SCT030=

USA.gov is the U.S. government's official web portal to all federal, state and local government web resources and services.